createdAt,value
2018-09-29T00:00:54.725Z,101371.77
2018-09-29T00:05:59.195Z,101383.66
2018-09-29T00:11:03.427Z,101386.23
2018-09-29T00:16:08.131Z,101402.60
2018-09-29T00:21:13.461Z,101407.06
2018-09-29T00:26:17.614Z,101405.98
2018-09-29T00:31:22.290Z,101398.53
2018-09-29T00:36:26.737Z,101408.89
2018-09-29T00:41:31.438Z,101409.59
2018-09-29T00:46:35.711Z,101407.19
2018-09-29T00:51:40.071Z,101399.73
2018-09-29T00:56:45.986Z,101393.84
2018-09-29T01:01:50.314Z,101406.01
2018-09-29T01:06:55.395Z,101414.00
2018-09-29T01:11:59.674Z,101414.86
2018-09-29T01:17:03.807Z,101420.77
2018-09-29T01:22:08.087Z,101417.23
2018-09-29T01:27:12.461Z,101412.11
2018-09-29T01:32:16.703Z,101419.45
2018-09-29T01:37:20.982Z,101410.68
2018-09-29T01:42:25.726Z,101418.89
2018-09-29T01:47:31.476Z,101418.10
2018-09-29T01:52:35.761Z,101418.78
2018-09-29T01:57:39.962Z,101425.34
2018-09-29T02:02:44.127Z,101420.55
2018-09-29T02:07:48.384Z,101422.09
2018-09-29T02:12:53.190Z,101414.09
2018-09-29T02:17:57.480Z,101417.20
2018-09-29T02:23:01.676Z,101418.45
2018-09-29T02:28:05.884Z,101411.72
2018-09-29T02:33:10.111Z,101417.98
2018-09-29T02:38:14.777Z,101414.00
2018-09-29T02:43:18.804Z,101418.27
2018-09-29T02:48:23.808Z,101423.48
2018-09-29T02:53:28.092Z,101423.41
2018-09-29T02:58:32.610Z,101423.86
2018-09-29T03:03:36.846Z,101420.35
2018-09-29T03:08:41.186Z,101422.45
2018-09-29T03:13:45.496Z,101420.27
2018-09-29T03:18:50.078Z,101426.23
2018-09-29T03:23:54.286Z,101429.91
2018-09-29T03:28:58.783Z,101434.34
2018-09-29T03:34:03.506Z,101440.83
2018-09-29T03:39:10.262Z,101449.81
2018-09-29T03:44:14.718Z,101452.12
2018-09-29T03:49:19.032Z,101461.61
2018-09-29T03:54:23.684Z,101468.73
2018-09-29T03:59:28.146Z,101469.79
2018-09-29T04:04:33.985Z,101470.24
2018-09-29T04:09:39.402Z,101470.63
2018-09-29T04:14:43.842Z,101468.72
2018-09-29T04:19:53.674Z,101468.43
2018-09-29T04:24:58.110Z,101470.34
2018-09-29T04:30:02.714Z,101475.09
2018-09-29T04:35:07.183Z,101475.09
2018-09-29T04:40:12.430Z,101476.02
2018-09-29T04:45:16.881Z,101481.27
2018-09-29T04:50:21.239Z,101487.54
2018-09-29T04:55:25.756Z,101499.06
2018-09-29T05:00:30.074Z,101499.06
2018-09-29T05:05:34.614Z,101493.11
2018-09-29T05:10:38.995Z,101505.97
2018-09-29T05:15:43.474Z,101508.33
2018-09-29T05:20:48.078Z,101520.84
2018-09-29T05:25:52.278Z,101526.80
2018-09-29T05:30:56.601Z,101524.50
2018-09-29T05:36:01.500Z,101528.47
2018-09-29T05:41:05.763Z,101532.50
2018-09-29T05:46:10.064Z,101539.41
2018-09-29T05:51:14.431Z,101543.44
2018-09-29T05:56:19.121Z,101547.69
2018-09-29T06:01:28.468Z,101544.86
2018-09-29T06:06:33.096Z,101548.65
2018-09-29T06:11:37.836Z,101546.69
2018-09-29T06:16:43.066Z,101551.00
2018-09-29T06:21:47.409Z,101554.63
2018-09-29T06:26:51.775Z,101552.63
2018-09-29T06:31:55.944Z,101553.36
2018-09-29T06:37:00.369Z,101561.31
2018-09-29T06:42:05.333Z,101569.88
2018-09-29T06:47:09.985Z,101569.14
2018-09-29T06:52:15.541Z,101571.89
2018-09-29T06:57:20.039Z,101573.52
2018-09-29T07:02:24.415Z,101588.05
2018-09-29T07:07:28.925Z,101582.67
2018-09-29T07:12:33.500Z,101587.30
2018-09-29T07:17:38.069Z,101588.91
2018-09-29T07:22:42.458Z,101593.73
2018-09-29T07:27:46.864Z,101591.22
2018-09-29T07:32:51.350Z,101587.98
2018-09-29T07:37:55.579Z,101589.50
2018-09-29T07:42:59.935Z,101588.88
2018-09-29T07:48:04.782Z,101594.27
2018-09-29T07:53:09.636Z,101586.05
2018-09-29T07:58:13.930Z,101602.14
2018-09-29T08:03:18.428Z,101599.52
2018-09-29T08:08:23.619Z,101595.47
2018-09-29T08:13:28.118Z,101585.05
2018-09-29T08:18:32.603Z,101587.23
2018-09-29T08:23:37.141Z,101583.53
2018-09-29T08:28:50.880Z,101592.13
2018-09-29T08:34:02.605Z,101590.27
2018-09-29T08:39:08.166Z,101595.63
2018-09-29T08:44:12.354Z,101600.52
2018-09-29T08:49:16.630Z,101602.98
2018-09-29T08:54:21.077Z,101598.57
2018-09-29T08:59:25.374Z,101605.05
2018-09-29T09:04:29.673Z,101596.42
2018-09-29T09:09:33.913Z,101598.05
2018-09-29T09:14:38.401Z,101594.63
2018-09-29T09:19:42.944Z,101591.09
2018-09-29T09:24:47.334Z,101592.59
2018-09-29T09:29:51.676Z,101590.11
2018-09-29T09:34:56.001Z,101590.92
2018-09-29T09:40:00.285Z,101580.94
2018-09-29T09:45:05.330Z,101577.92
2018-09-29T09:50:10.627Z,101574.59
2018-09-29T09:55:15.455Z,101568.73
2018-09-29T10:00:20.044Z,101567.48
2018-09-29T10:05:24.837Z,101571.36
2018-09-29T10:10:28.390Z,101559.56
2018-09-29T10:15:31.945Z,101567.81
2018-09-29T10:20:36.228Z,101559.97
2018-09-29T10:25:40.108Z,101557.88
2018-09-29T10:30:43.544Z,101556.41
2018-09-29T10:35:46.901Z,101560.31
2018-09-29T10:40:55.357Z,101548.56
2018-09-29T10:45:59.047Z,101545.00
2018-09-29T10:51:03.628Z,101537.58
2018-09-29T10:56:08.123Z,101521.92
2018-09-29T11:01:12.570Z,101528.08
2018-09-29T11:06:16.967Z,101519.80
2018-09-29T11:11:21.334Z,101511.27
2018-09-29T11:16:25.680Z,101508.87
2018-09-29T11:21:29.972Z,101504.86
2018-09-29T11:26:34.620Z,101508.30
2018-09-29T11:31:39.133Z,101507.73
2018-09-29T11:36:43.596Z,101491.73
2018-09-29T11:41:48.016Z,101479.73
2018-09-29T11:46:52.543Z,101467.65
2018-09-29T11:51:57.331Z,101465.29
2018-09-29T11:57:01.825Z,101450.33
2018-09-29T12:02:06.486Z,101445.64
2018-09-29T12:07:11.305Z,101446.73
2018-09-29T12:12:15.679Z,101437.98
2018-09-29T12:17:20.085Z,101429.80
2018-09-29T12:22:29.734Z,101424.78
2018-09-29T12:27:34.059Z,101418.88
2018-09-29T12:32:38.483Z,101413.84
2018-09-29T12:37:43.127Z,101405.58
2018-09-29T12:42:47.933Z,101399.00
2018-09-29T12:47:53.195Z,101399.93
2018-09-29T12:52:58.029Z,101386.56
2018-09-29T12:58:02.979Z,101377.44
2018-09-29T13:03:08.619Z,101372.98
2018-09-29T13:08:13.023Z,101362.29
2018-09-29T13:13:18.207Z,101351.77
2018-09-29T13:18:22.848Z,101341.45
2018-09-29T13:23:27.322Z,101346.97
2018-09-29T13:28:31.933Z,101335.10
2018-09-29T13:33:36.607Z,101334.65
2018-09-29T13:38:41.207Z,101331.30
2018-09-29T13:43:45.745Z,101322.34
2018-09-29T13:48:50.305Z,101313.90
2018-09-29T13:53:54.789Z,101303.45
2018-09-29T13:58:59.219Z,101298.95
2018-09-29T14:04:04.011Z,101288.84
2018-09-29T14:09:09.999Z,101289.97
2018-09-29T14:14:14.390Z,101282.27
2018-09-29T14:19:19.506Z,101281.28
2018-09-29T14:24:24.767Z,101271.77
2018-09-29T14:29:29.080Z,101263.83
2018-09-29T14:34:33.276Z,101256.86
2018-09-29T14:39:37.691Z,101255.64
2018-09-29T14:44:42.027Z,101249.22
2018-09-29T14:49:47.093Z,101247.02
2018-09-29T14:54:51.613Z,101238.26
2018-09-29T14:59:56.307Z,101243.97
2018-09-29T15:05:00.608Z,101230.83
2018-09-29T15:10:05.002Z,101229.18
2018-09-29T15:15:09.405Z,101217.42
2018-09-29T15:20:13.734Z,101208.56
2018-09-29T15:25:18.280Z,101205.73
2018-09-29T15:30:22.859Z,101209.67
2018-09-29T15:35:27.155Z,101199.03
2018-09-29T15:40:31.841Z,101195.51
2018-09-29T15:45:36.476Z,101189.95
2018-09-29T15:50:41.126Z,101191.59
2018-09-29T15:55:45.879Z,101177.38
2018-09-29T16:00:50.404Z,101181.00
2018-09-29T16:05:54.707Z,101170.69
2018-09-29T16:10:59.268Z,101172.64
2018-09-29T16:16:03.665Z,101171.16
2018-09-29T16:21:08.420Z,101164.85
2018-09-29T16:26:12.721Z,101159.81
2018-09-29T16:31:17.419Z,101157.48
2018-09-29T16:36:21.693Z,101154.45
2018-09-29T16:41:26.276Z,101144.85
2018-09-29T16:46:31.436Z,101149.44
2018-09-29T16:51:35.711Z,101151.11
2018-09-29T16:56:40.128Z,101159.13
2018-09-29T17:01:49.680Z,101157.06
2018-09-29T17:06:54.210Z,101163.24
2018-09-29T17:11:59.550Z,101170.59
2018-09-29T17:17:04.692Z,101176.77
2018-09-29T17:22:09.420Z,101173.08
2018-09-29T17:27:13.700Z,101175.83
2018-09-29T17:32:18.154Z,101182.05
2018-09-29T17:37:22.785Z,101174.61
2018-09-29T17:42:32.276Z,101175.20
2018-09-29T17:47:37.884Z,101184.83
2018-09-29T17:52:42.351Z,101185.91
2018-09-29T17:57:47.697Z,101190.48
2018-09-29T18:02:53.863Z,101187.84
2018-09-29T18:07:59.271Z,101174.01
2018-09-29T18:13:03.726Z,101177.00
2018-09-29T18:18:08.291Z,101178.12
2018-09-29T18:23:12.781Z,101186.16
2018-09-29T18:28:17.263Z,101173.65
2018-09-29T18:33:21.789Z,101178.69
2018-09-29T18:38:26.557Z,101174.42
2018-09-29T18:43:31.223Z,101171.77
2018-09-29T18:48:35.841Z,101167.52
2018-09-29T18:53:40.183Z,101160.08
2018-09-29T18:58:49.644Z,101158.23
2018-09-29T19:03:54.223Z,101152.92
2018-09-29T19:08:59.049Z,101147.89
2018-09-29T19:14:03.907Z,101144.47
2018-09-29T19:19:08.632Z,101144.48
2018-09-29T19:24:13.193Z,101141.03
2018-09-29T19:29:17.695Z,101138.39
2018-09-29T19:34:22.139Z,101137.56
2018-09-29T19:39:26.706Z,101135.97
2018-09-29T19:44:31.707Z,101146.64
2018-09-29T19:49:36.245Z,101136.26
2018-09-29T19:54:40.611Z,101127.21
2018-09-29T19:59:44.943Z,101122.70
2018-09-29T20:04:49.357Z,101121.09
2018-09-29T20:09:53.487Z,101116.29
2018-09-29T20:14:57.931Z,101114.44
2018-09-29T20:20:02.665Z,101103.48
2018-09-29T20:25:07.034Z,101098.72
2018-09-29T20:30:11.371Z,101099.24
2018-09-29T20:35:16.155Z,101098.19
2018-09-29T20:40:21.013Z,101090.47
2018-09-29T20:45:25.369Z,101084.89
2018-09-29T20:50:29.605Z,101084.91
2018-09-29T20:55:34.277Z,101074.80
2018-09-29T21:00:43.687Z,101071.09
2018-09-29T21:05:49.165Z,101066.55
2018-09-29T21:10:53.799Z,101060.45
2018-09-29T21:15:58.177Z,101056.45
2018-09-29T21:21:02.867Z,101057.25
2018-09-29T21:26:08.121Z,101048.71
2018-09-29T21:31:12.398Z,101043.67
2018-09-29T21:36:16.861Z,101036.75
2018-09-29T21:41:21.238Z,101031.70
2018-09-29T21:46:25.492Z,101031.20
2018-09-29T21:51:29.708Z,101024.55
2018-09-29T21:56:34.052Z,101012.02
2018-09-29T22:01:38.584Z,101001.38
2018-09-29T22:06:42.904Z,101001.38
2018-09-29T22:11:47.375Z,100987.55
2018-09-29T22:16:51.647Z,100977.69
2018-09-29T22:21:55.929Z,100971.59
2018-09-29T22:27:00.303Z,100968.11
2018-09-29T22:32:04.797Z,100955.34
2018-09-29T22:37:09.157Z,100946.32
2018-09-29T22:42:13.556Z,100936.20
2018-09-29T22:47:17.867Z,100924.78
2018-09-29T22:52:22.073Z,100931.44
2018-09-29T22:57:26.314Z,100919.19
2018-09-29T23:02:31.486Z,100920.50
2018-09-29T23:07:35.990Z,100920.22
2018-09-29T23:12:40.293Z,100917.56
2018-09-29T23:17:44.547Z,100915.99
2018-09-29T23:22:48.842Z,100915.17
2018-09-29T23:27:53.183Z,100913.31
2018-09-29T23:32:57.541Z,100919.13
2018-09-29T23:38:01.769Z,100911.39
2018-09-29T23:43:05.995Z,100901.58
2018-09-29T23:48:10.306Z,100895.97
2018-09-29T23:53:14.653Z,100891.43
2018-09-29T23:58:19.499Z,100892.73
